sensor_id;sensor_type;location;lat;lon;timestamp;pressure;altitude;pressure_sealevel;temperature;humidity
74230;BME280;62589;12.568;99.958;2023-02-23T00:01:20;101064.06;;;30.89;44.41
74230;BME280;62589;12.568;99.958;2023-02-23T00:03:49;101072.38;;;30.89;44.05
74230;BME280;62589;12.568;99.958;2023-02-23T00:06:17;101077.47;;;30.87;44.13
74230;BME280;62589;12.568;99.958;2023-02-23T00:08:44;101081.50;;;30.90;43.82
74230;BME280;62589;12.568;99.958;2023-02-23T00:11:13;101088.22;;;30.89;43.70
74230;BME280;62589;12.568;99.958;2023-02-23T00:13:41;101090.97;;;30.89;43.46
74230;BME280;62589;12.568;99.958;2023-02-23T00:16:19;101090.19;;;30.88;43.18
74230;BME280;62589;12.568;99.958;2023-02-23T00:18:54;101097.34;;;30.89;43.07
74230;BME280;62589;12.568;99.958;2023-02-23T00:21:24;101101.72;;;30.90;43.23
74230;BME280;62589;12.568;99.958;2023-02-23T00:24:11;101108.28;;;30.82;43.36
74230;BME280;62589;12.568;99.958;2023-02-23T00:26:45;101117.09;;;30.88;43.28
74230;BME280;62589;12.568;99.958;2023-02-23T00:29:17;101113.53;;;30.87;43.13
74230;BME280;62589;12.568;99.958;2023-02-23T00:31:46;101119.06;;;30.87;42.78
74230;BME280;62589;12.568;99.958;2023-02-23T00:34:14;101116.66;;;30.86;42.46
74230;BME280;62589;12.568;99.958;2023-02-23T00:36:41;101120.69;;;30.88;42.55
74230;BME280;62589;12.568;99.958;2023-02-23T00:39:10;101123.09;;;30.90;42.53
74230;BME280;62589;12.568;99.958;2023-02-23T00:41:48;101127.09;;;30.92;42.20
74230;BME280;62589;12.568;99.958;2023-02-23T00:44:15;101125.13;;;30.93;42.37
74230;BME280;62589;12.568;99.958;2023-02-23T00:46:43;101135.09;;;30.97;42.02
74230;BME280;62589;12.568;99.958;2023-02-23T00:49:12;101134.38;;;31.00;42.04
74230;BME280;62589;12.568;99.958;2023-02-23T00:51:38;101134.53;;;31.07;42.19
74230;BME280;62589;12.568;99.958;2023-02-23T00:54:05;101141.78;;;31.12;41.84
74230;BME280;62589;12.568;99.958;2023-02-23T00:56:32;101141.47;;;31.17;41.53
74230;BME280;62589;12.568;99.958;2023-02-23T00:58:59;101139.19;;;31.23;41.61
74230;BME280;62589;12.568;99.958;2023-02-23T01:01:26;101141.66;;;31.28;41.39
74230;BME280;62589;12.568;99.958;2023-02-23T01:03:52;101146.47;;;31.31;41.19
74230;BME280;62589;12.568;99.958;2023-02-23T01:06:19;101151.38;;;31.37;41.36
74230;BME280;62589;12.568;99.958;2023-02-23T01:08:48;101137.97;;;31.43;41.03
74230;BME280;62589;12.568;99.958;2023-02-23T01:11:18;101132.56;;;31.50;41.08
74230;BME280;62589;12.568;99.958;2023-02-23T01:13:46;101146.56;;;31.57;40.63
74230;BME280;62589;12.568;99.958;2023-02-23T01:16:19;101141.09;;;31.64;40.53
74230;BME280;62589;12.568;99.958;2023-02-23T06:30:02;100941.72;;;38.11;37.69
74230;BME280;62589;12.568;99.958;2023-02-23T06:32:29;100942.47;;;38.15;37.64
74230;BME280;62589;12.568;99.958;2023-02-23T06:34:55;100935.69;;;38.09;37.13
74230;BME280;62589;12.568;99.958;2023-02-23T06:37:22;100935.28;;;38.14;37.77
74230;BME280;62589;12.568;99.958;2023-02-23T06:39:48;100933.69;;;38.13;37.13
74230;BME280;62589;12.568;99.958;2023-02-23T06:42:15;100933.25;;;38.14;36.84
74230;BME280;62589;12.568;99.958;2023-02-23T06:44:42;100923.69;;;38.12;36.18
74230;BME280;62589;12.568;99.958;2023-02-23T06:47:08;100924.44;;;38.16;36.76
74230;BME280;62589;12.568;99.958;2023-02-23T06:49:35;100921.63;;;38.16;36.49
74230;BME280;62589;12.568;99.958;2023-02-23T06:52:02;100916.44;;;38.14;36.35
74230;BME280;62589;12.568;99.958;2023-02-23T06:54:29;100917.59;;;38.17;36.81
74230;BME280;62589;12.568;99.958;2023-02-23T06:56:55;100910.88;;;38.11;35.73
74230;BME280;62589;12.568;99.958;2023-02-23T06:59:21;100908.06;;;38.11;35.69
74230;BME280;62589;12.568;99.958;2023-02-23T07:01:49;100906.88;;;38.08;35.33
74230;BME280;62589;12.568;99.958;2023-02-23T07:04:15;100897.28;;;38.06;35.74
74230;BME280;62589;12.568;99.958;2023-02-23T07:06:42;100889.25;;;38.08;36.57
74230;BME280;62589;12.568;99.958;2023-02-23T07:09:09;100890.91;;;38.05;35.80
74230;BME280;62589;12.568;99.958;2023-02-23T07:11:35;100878.53;;;38.03;35.97
74230;BME280;62589;12.568;99.958;2023-02-23T07:14:01;100881.34;;;38.03;36.16
74230;BME280;62589;12.568;99.958;2023-02-23T07:16:28;100885.72;;;38.04;36.96
74230;BME280;62589;12.568;99.958;2023-02-23T07:18:55;100880.09;;;38.04;36.41
74230;BME280;62589;12.568;99.958;2023-02-23T07:21:21;100871.69;;;38.04;36.22
74230;BME280;62589;12.568;99.958;2023-02-23T07:23:48;100862.94;;;38.02;36.08
74230;BME280;62589;12.568;99.958;2023-02-23T07:26:15;100861.72;;;38.03;35.88
74230;BME280;62589;12.568;99.958;2023-02-23T07:28:43;100865.75;;;38.02;36.60
74230;BME280;62589;12.568;99.958;2023-02-23T07:50:35;100825.81;;;39.54;32.27
74230;BME280;62589;12.568;99.958;2023-02-23T07:53:01;100822.38;;;39.07;32.30
74230;BME280;62589;12.568;99.958;2023-02-23T07:55:28;100815.84;;;38.67;33.45
74230;BME280;62589;12.568;99.958;2023-02-23T07:57:55;100811.09;;;38.40;33.70
74230;BME280;62589;12.568;99.958;2023-02-23T08:00:22;100808.22;;;38.21;33.74
74230;BME280;62589;12.568;99.958;2023-02-23T08:02:50;100793.88;;;38.15;34.27
74230;BME280;62589;12.568;99.958;2023-02-23T08:05:18;100795.13;;;38.10;34.54
74230;BME280;62589;12.568;99.958;2023-02-23T08:07:45;100794.78;;;38.05;35.24
74230;BME280;62589;12.568;99.958;2023-02-23T08:10:12;100785.28;;;37.99;35.37
74230;BME280;62589;12.568;99.958;2023-02-23T08:12:38;100783.81;;;37.91;35.06
74230;BME280;62589;12.568;99.958;2023-02-23T08:15:05;100785.44;;;37.88;34.93
74230;BME280;62589;12.568;99.958;2023-02-23T08:17:34;100777.09;;;37.84;35.44
74230;BME280;62589;12.568;99.958;2023-02-23T08:20:00;100773.88;;;37.86;36.03
74230;BME280;62589;12.568;99.958;2023-02-23T08:22:27;100767.47;;;37.86;36.34
74230;BME280;62589;12.568;99.958;2023-02-23T08:24:53;100775.88;;;37.86;36.57
74230;BME280;62589;12.568;99.958;2023-02-23T08:27:20;100772.34;;;37.81;36.34
74230;BME280;62589;12.568;99.958;2023-02-23T08:29:46;100767.53;;;37.82;36.39
74230;BME280;62589;12.568;99.958;2023-02-23T08:32:13;100769.56;;;37.81;36.71
74230;BME280;62589;12.568;99.958;2023-02-23T08:34:41;100772.41;;;37.78;36.94
74230;BME280;62589;12.568;99.958;2023-02-23T08:37:08;100772.81;;;37.76;36.67
74230;BME280;62589;12.568;99.958;2023-02-23T08:39:35;100774.03;;;37.75;36.29
74230;BME280;62589;12.568;99.958;2023-02-23T08:42:03;100769.28;;;37.72;36.23
74230;BME280;62589;12.568;99.958;2023-02-23T08:44:29;100767.31;;;37.69;36.39
74230;BME280;62589;12.568;99.958;2023-02-23T08:46:56;100766.94;;;37.67;36.27
74230;BME280;62589;12.568;99.958;2023-02-23T08:49:24;100768.94;;;37.67;36.09
74230;BME280;62589;12.568;99.958;2023-02-23T08:51:51;100764.22;;;37.60;35.54
74230;BME280;62589;12.568;99.958;2023-02-23T08:54:18;100763.44;;;37.60;35.85
74230;BME280;62589;12.568;99.958;2023-02-23T08:56:45;100757.09;;;37.56;36.01
74230;BME280;62589;12.568;99.958;2023-02-23T08:59:13;100763.09;;;37.54;35.81
74230;BME280;62589;12.568;99.958;2023-02-23T09:01:41;100766.75;;;37.51;34.74
74230;BME280;62589;12.568;99.958;2023-02-23T09:04:07;100756.00;;;37.46;33.86
74230;BME280;62589;12.568;99.958;2023-02-23T09:06:35;100764.41;;;37.46;34.18
74230;BME280;62589;12.568;99.958;2023-02-23T09:09:02;100780.41;;;37.45;34.63
74230;BME280;62589;12.568;99.958;2023-02-23T09:11:28;100762.41;;;37.46;35.15
74230;BME280;62589;12.568;99.958;2023-02-23T09:13:55;100761.59;;;37.46;34.87
74230;BME280;62589;12.568;99.958;2023-02-23T09:16:21;100758.06;;;37.42;35.47
74230;BME280;62589;12.568;99.958;2023-02-23T09:18:48;100749.31;;;37.40;35.29
74230;BME280;62589;12.568;99.958;2023-02-23T09:21:17;100763.31;;;37.40;35.25
74230;BME280;62589;12.568;99.958;2023-02-23T09:23:46;100756.13;;;37.39;34.78
74230;BME280;62589;12.568;99.958;2023-02-23T09:26:14;100756.16;;;37.35;34.79
74230;BME280;62589;12.568;99.958;2023-02-23T09:28:43;100758.16;;;37.35;34.52
74230;BME280;62589;12.568;99.958;2023-02-23T09:31:12;100763.41;;;37.33;34.57
74230;BME280;62589;12.568;99.958;2023-02-23T09:33:39;100754.63;;;37.31;35.11
74230;BME280;62589;12.568;99.958;2023-02-23T09:36:08;100758.22;;;37.31;35.40
74230;BME280;62589;12.568;99.958;2023-02-23T09:38:36;100766.25;;;37.29;35.72
74230;BME280;62589;12.568;99.958;2023-02-23T09:41:18;100764.66;;;37.28;36.07
74230;BME280;62589;12.568;99.958;2023-02-23T09:44:25;100769.84;;;37.30;35.94
74230;BME280;62589;12.568;99.958;2023-02-23T09:47:25;100763.47;;;37.26;35.73
74230;BME280;62589;12.568;99.958;2023-02-23T09:49:54;100772.00;;;37.19;35.41
74230;BME280;62589;12.568;99.958;2023-02-23T09:52:39;100769.56;;;37.17;35.16
74230;BME280;62589;12.568;99.958;2023-02-23T09:55:10;100767.25;;;37.08;35.08
74230;BME280;62589;12.568;99.958;2023-02-23T09:57:40;100774.06;;;37.07;35.50
74230;BME280;62589;12.568;99.958;2023-02-23T10:00:19;100773.69;;;37.05;35.54
74230;BME280;62589;12.568;99.958;2023-02-23T10:03:17;100775.28;;;37.06;35.54
74230;BME280;62589;12.568;99.958;2023-02-23T10:05:50;100780.19;;;36.99;35.33
74230;BME280;62589;12.568;99.958;2023-02-23T10:08:41;100785.00;;;36.98;35.67
74230;BME280;62589;12.568;99.958;2023-02-23T10:17:21;100781.06;;;36.92;35.50
74230;BME280;62589;12.568;99.958;2023-02-23T10:19:55;100784.72;;;36.86;35.34
74230;BME280;62589;12.568;99.958;2023-02-23T10:22:27;100775.56;;;36.81;35.27
74230;BME280;62589;12.568;99.958;2023-02-23T10:25:00;100785.56;;;36.79;35.27
74230;BME280;62589;12.568;99.958;2023-02-23T10:27:40;100777.63;;;36.77;35.24
74230;BME280;62589;12.568;99.958;2023-02-23T10:30:28;100778.03;;;36.76;35.29
74230;BME280;62589;12.568;99.958;2023-02-23T10:33:37;100779.25;;;36.75;35.25
74230;BME280;62589;12.568;99.958;2023-02-23T10:39:10;100784.09;;;36.64;36.01
74230;BME280;62589;12.568;99.958;2023-02-23T10:41:38;100783.72;;;36.62;36.29
74230;BME280;62589;12.568;99.958;2023-02-23T10:44:10;100782.13;;;36.61;36.03
74230;BME280;62589;12.568;99.958;2023-02-23T10:46:41;100779.75;;;36.59;36.08
74230;BME280;62589;12.568;99.958;2023-02-23T10:49:16;100780.19;;;36.58;36.44
74230;BME280;62589;12.568;99.958;2023-02-23T10:51:47;100779.81;;;36.56;36.65
74230;BME280;62589;12.568;99.958;2023-02-23T10:57:06;100780.66;;;36.49;36.63
74230;BME280;62589;12.568;99.958;2023-02-23T10:59:33;100779.88;;;36.48;36.65
74230;BME280;62589;12.568;99.958;2023-02-23T11:02:15;100782.25;;;36.50;36.88
74230;BME280;62589;12.568;99.958;2023-02-23T11:04:56;100775.88;;;36.46;37.07
74230;BME280;62589;12.568;99.958;2023-02-23T11:07:24;100778.31;;;36.44;37.02
74230;BME280;62589;12.568;99.958;2023-02-23T11:09:55;100777.53;;;36.40;37.25
74230;BME280;62589;12.568;99.958;2023-02-23T11:12:25;100774.78;;;36.36;37.03
74230;BME280;62589;12.568;99.958;2023-02-23T11:14:57;100775.19;;;36.35;37.09
74230;BME280;62589;12.568;99.958;2023-02-23T11:17:35;100774.41;;;36.34;37.27
74230;BME280;62589;12.568;99.958;2023-02-23T11:20:21;100779.59;;;36.36;37.26
74230;BME280;62589;12.568;99.958;2023-02-23T11:22:50;100783.63;;;36.31;37.42
74230;BME280;62589;12.568;99.958;2023-02-23T11:25:25;100778.06;;;36.28;37.27
74230;BME280;62589;12.568;99.958;2023-02-23T11:27:53;100781.25;;;36.26;37.59
74230;BME280;62589;12.568;99.958;2023-02-23T11:30:34;100789.22;;;36.28;37.26
74230;BME280;62589;12.568;99.958;2023-02-23T11:33:12;100788.84;;;36.22;36.87
74230;BME280;62589;12.568;99.958;2023-02-23T11:35:41;100792.47;;;36.19;36.80
74230;BME280;62589;12.568;99.958;2023-02-23T11:38:25;100794.50;;;36.15;36.67
74230;BME280;62589;12.568;99.958;2023-02-23T11:43:28;100804.13;;;36.10;37.34
74230;BME280;62589;12.568;99.958;2023-02-23T11:45:57;100804.94;;;36.04;37.51
74230;BME280;62589;12.568;99.958;2023-02-23T11:48:35;100807.75;;;36.00;37.00
74230;BME280;62589;12.568;99.958;2023-02-23T11:51:08;100808.59;;;35.97;36.84
74230;BME280;62589;12.568;99.958;2023-02-23T11:53:38;100805.03;;;35.93;36.52
74230;BME280;62589;12.568;99.958;2023-02-23T11:56:13;100810.66;;;35.86;36.56
74230;BME280;62589;12.568;99.958;2023-02-23T11:58:57;100801.91;;;35.80;36.86
74230;BME280;62589;12.568;99.958;2023-02-23T12:01:42;100804.31;;;35.78;37.08
74230;BME280;62589;12.568;99.958;2023-02-23T12:04:29;100807.53;;;35.73;37.38
74230;BME280;62589;12.568;99.958;2023-02-23T12:09:50;100814.75;;;35.64;38.04
74230;BME280;62589;12.568;99.958;2023-02-23T12:12:21;100818.75;;;35.59;38.37
74230;BME280;62589;12.568;99.958;2023-02-23T12:14:55;100814.81;;;35.53;38.37
74230;BME280;62589;12.568;99.958;2023-02-23T12:17:33;100825.19;;;35.53;37.63
74230;BME280;62589;12.568;99.958;2023-02-23T12:20:15;100828.78;;;35.50;38.20
74230;BME280;62589;12.568;99.958;2023-02-23T12:23:02;100832.38;;;35.46;38.08
74230;BME280;62589;12.568;99.958;2023-02-23T12:28:36;100835.19;;;35.36;37.33
74230;BME280;62589;12.568;99.958;2023-02-23T12:34:20;100833.66;;;35.31;36.59
74230;BME280;62589;12.568;99.958;2023-02-23T12:36:54;100844.41;;;35.26;36.00
74230;BME280;62589;12.568;99.958;2023-02-23T12:45:02;100845.19;;;35.15;36.13
74230;BME280;62589;12.568;99.958;2023-02-23T12:47:52;100840.84;;;35.11;35.54
74230;BME280;62589;12.568;99.958;2023-02-23T12:50:36;100842.06;;;35.06;36.17
74230;BME280;62589;12.568;99.958;2023-02-23T12:53:19;100835.28;;;35.00;35.44
74230;BME280;62589;12.568;99.958;2023-02-23T13:01:56;100835.72;;;34.88;35.13
74230;BME280;62589;12.568;99.958;2023-02-23T13:11:02;100848.06;;;34.80;34.94
74230;BME280;62589;12.568;99.958;2023-02-23T13:13:51;100851.63;;;34.77;34.92
74230;BME280;62589;12.568;99.958;2023-02-23T13:16:32;100852.41;;;34.74;34.88
74230;BME280;62589;12.568;99.958;2023-02-23T13:19:38;100865.16;;;34.75;34.96
74230;BME280;62589;12.568;99.958;2023-02-23T13:22:33;100856.78;;;34.71;34.75
74230;BME280;62589;12.568;99.958;2023-02-23T13:25:16;100861.59;;;34.64;34.17
74230;BME280;62589;12.568;99.958;2023-02-23T13:27:51;100862.00;;;34.62;34.34
74230;BME280;62589;12.568;99.958;2023-02-23T13:30:18;100865.97;;;34.65;34.06
74230;BME280;62589;12.568;99.958;2023-02-23T13:32:46;100865.19;;;34.61;34.41
74230;BME280;62589;12.568;99.958;2023-02-23T13:35:15;100869.16;;;34.60;33.98
74230;BME280;62589;12.568;99.958;2023-02-23T13:37:53;100870.75;;;34.61;34.50
74230;BME280;62589;12.568;99.958;2023-02-23T13:40:44;100877.13;;;34.65;34.13
74230;BME280;62589;12.568;99.958;2023-02-23T13:49:29;100877.91;;;34.40;34.21
74230;BME280;62589;12.568;99.958;2023-02-23T13:54:54;100887.50;;;34.50;34.54
74230;BME280;62589;12.568;99.958;2023-02-23T13:57:23;100897.84;;;34.50;34.21
74230;BME280;62589;12.568;99.958;2023-02-23T13:59:51;100897.84;;;34.50;34.64
74230;BME280;62589;12.568;99.958;2023-02-23T14:02:32;100899.81;;;34.53;34.48
74230;BME280;62589;12.568;99.958;2023-02-23T14:05:10;100899.44;;;34.47;34.54
74230;BME280;62589;12.568;99.958;2023-02-23T14:07:42;100916.16;;;34.47;34.45
74230;BME280;62589;12.568;99.958;2023-02-23T14:10:28;100911.38;;;34.47;34.13
74230;BME280;62589;12.568;99.958;2023-02-23T14:16:18;100915.38;;;34.46;33.87
74230;BME280;62589;12.568;99.958;2023-02-23T14:19:06;100923.31;;;34.44;34.30
74230;BME280;62589;12.568;99.958;2023-02-23T14:21:44;100931.66;;;34.37;34.36
74230;BME280;62589;12.568;99.958;2023-02-23T14:24:23;100929.66;;;34.34;34.48
74230;BME280;62589;12.568;99.958;2023-02-23T14:29:42;100927.28;;;34.33;34.63
74230;BME280;62589;12.568;99.958;2023-02-23T14:32:28;100931.25;;;34.35;34.47
74230;BME280;62589;12.568;99.958;2023-02-23T14:34:59;100933.63;;;34.30;34.49
74230;BME280;62589;12.568;99.958;2023-02-23T14:37:38;100936.41;;;34.30;34.04
74230;BME280;62589;12.568;99.958;2023-02-23T14:40:18;100936.00;;;34.28;34.19
74230;BME280;62589;12.568;99.958;2023-02-23T14:42:49;100930.03;;;34.26;34.63
74230;BME280;62589;12.568;99.958;2023-02-23T14:45:24;100946.75;;;34.26;34.58
74230;BME280;62589;12.568;99.958;2023-02-23T14:48:12;100934.84;;;34.29;34.48
74230;BME280;62589;12.568;99.958;2023-02-23T14:50:42;100934.00;;;34.25;34.07
74230;BME280;62589;12.568;99.958;2023-02-23T14:53:20;100937.59;;;34.25;34.13
74230;BME280;62589;12.568;99.958;2023-02-23T14:55:47;100937.56;;;34.22;33.95
74230;BME280;62589;12.568;99.958;2023-02-23T14:58:27;100939.59;;;34.25;34.29
74230;BME280;62589;12.568;99.958;2023-02-23T15:00:54;100941.56;;;34.21;34.63
74230;BME280;62589;12.568;99.958;2023-02-23T15:03:21;100939.16;;;34.19;34.87
74230;BME280;62589;12.568;99.958;2023-02-23T15:05:55;100936.75;;;34.18;34.29
74230;BME280;62589;12.568;99.958;2023-02-23T15:08:24;100943.13;;;34.18;34.33
74230;BME280;62589;12.568;99.958;2023-02-23T15:11:06;100942.72;;;34.16;34.33
74230;BME280;62589;12.568;99.958;2023-02-23T15:13:46;100941.53;;;34.17;34.34
74230;BME280;62589;12.568;99.958;2023-02-23T15:16:27;100947.13;;;34.17;33.95
74230;BME280;62589;12.568;99.958;2023-02-23T15:18:54;100946.69;;;34.15;33.58
74230;BME280;62589;12.568;99.958;2023-02-23T15:21:22;100942.72;;;34.12;33.92
74230;BME280;62589;12.568;99.958;2023-02-23T15:23:51;100952.25;;;34.11;33.93
74230;BME280;62589;12.568;99.958;2023-02-23T15:26:29;100951.47;;;34.11;33.98
74230;BME280;62589;12.568;99.958;2023-02-23T15:29:15;100944.28;;;34.10;33.93
74230;BME280;62589;12.568;99.958;2023-02-23T15:31:44;100949.88;;;34.10;34.19
74230;BME280;62589;12.568;99.958;2023-02-23T15:34:21;100947.50;;;34.08;33.62
74230;BME280;62589;12.568;99.958;2023-02-23T15:37:16;100937.53;;;34.11;33.33
74230;BME280;62589;12.568;99.958;2023-02-23T15:40:03;100945.88;;;34.11;33.45
74230;BME280;62589;12.568;99.958;2023-02-23T15:42:45;100950.69;;;34.07;33.70
74230;BME280;62589;12.568;99.958;2023-02-23T15:45:38;100953.44;;;34.03;33.36
74230;BME280;62589;12.568;99.958;2023-02-23T15:48:13;100949.84;;;34.03;33.42
74230;BME280;62589;12.568;99.958;2023-02-23T15:50:45;100952.66;;;34.03;33.62
74230;BME280;62589;12.568;99.958;2023-02-23T15:53:28;100951.03;;;34.02;33.68
74230;BME280;62589;12.568;99.958;2023-02-23T15:56:01;100957.41;;;33.99;33.36
74230;BME280;62589;12.568;99.958;2023-02-23T15:58:35;100958.19;;;33.99;33.60
74230;BME280;62589;12.568;99.958;2023-02-23T16:01:14;100953.41;;;33.96;32.97
74230;BME280;62589;12.568;99.958;2023-02-23T16:04:05;100953.41;;;33.96;32.75
74230;BME280;62589;12.568;99.958;2023-02-23T16:06:46;100957.38;;;33.95;32.84
74230;BME280;62589;12.568;99.958;2023-02-23T16:09:27;100957.78;;;33.94;32.59
74230;BME280;62589;12.568;99.958;2023-02-23T16:12:09;100956.16;;;33.93;32.59
74230;BME280;62589;12.568;99.958;2023-02-23T16:14:53;100958.16;;;33.92;32.75
74230;BME280;62589;12.568;99.958;2023-02-23T16:17:25;100955.34;;;33.89;32.76
74230;BME280;62589;12.568;99.958;2023-02-23T16:22:35;100955.34;;;33.89;32.83
74230;BME280;62589;12.568;99.958;2023-02-23T16:25:10;100951.38;;;33.86;33.40
74230;BME280;62589;12.568;99.958;2023-02-23T16:27:37;100952.19;;;33.87;33.10
74230;BME280;62589;12.568;99.958;2023-02-23T16:30:22;100947.00;;;33.89;32.94
74230;BME280;62589;12.568;99.958;2023-02-23T16:33:22;100942.63;;;33.88;32.89
74230;BME280;62589;12.568;99.958;2023-02-23T16:35:52;100948.56;;;33.83;33.32
74230;BME280;62589;12.568;99.958;2023-02-23T16:38:25;100948.16;;;33.81;33.28
74230;BME280;62589;12.568;99.958;2023-02-23T16:40:52;100943.78;;;33.79;33.29
74230;BME280;62589;12.568;99.958;2023-02-23T16:43:19;100946.16;;;33.77;32.90
74230;BME280;62589;12.568;99.958;2023-02-23T16:45:46;100944.91;;;33.75;33.21
74230;BME280;62589;12.568;99.958;2023-02-23T16:48:15;100946.09;;;33.70;33.73
74230;BME280;62589;12.568;99.958;2023-02-23T16:50:42;100938.91;;;33.69;34.02
74230;BME280;62589;12.568;99.958;2023-02-23T16:53:11;100938.94;;;33.66;34.29
74230;BME280;62589;12.568;99.958;2023-02-23T16:55:46;100938.13;;;33.65;34.65
74230;BME280;62589;12.568;99.958;2023-02-23T16:58:19;100948.44;;;33.61;34.67
74230;BME280;62589;12.568;99.958;2023-02-23T17:00:48;100951.22;;;33.61;34.74
74230;BME280;62589;12.568;99.958;2023-02-23T17:03:21;100940.44;;;33.56;34.80
74230;BME280;62589;12.568;99.958;2023-02-23T17:05:55;100939.69;;;33.59;34.63
74230;BME280;62589;12.568;99.958;2023-02-23T17:08:22;100942.06;;;33.57;34.24
74230;BME280;62589;12.568;99.958;2023-02-23T17:10:51;100944.41;;;33.52;33.67
74230;BME280;62589;12.568;99.958;2023-02-23T17:13:24;100944.38;;;33.48;34.13
74230;BME280;62589;12.568;99.958;2023-02-23T17:15:52;100947.16;;;33.44;34.77
74230;BME280;62589;12.568;99.958;2023-02-23T17:18:30;100938.00;;;33.44;34.82
74230;BME280;62589;12.568;99.958;2023-02-23T17:20:59;100933.22;;;33.41;35.21
74230;BME280;62589;12.568;99.958;2023-02-23T17:23:28;100927.22;;;33.39;35.32
74230;BME280;62589;12.568;99.958;2023-02-23T17:26:05;100936.38;;;33.39;35.32
74230;BME280;62589;12.568;99.958;2023-02-23T17:28:31;100935.59;;;33.39;35.48
74230;BME280;62589;12.568;99.958;2023-02-23T17:30:59;100933.97;;;33.38;35.16
74230;BME280;62589;12.568;99.958;2023-02-23T17:33:27;100937.53;;;33.35;35.19
74230;BME280;62589;12.568;99.958;2023-02-23T17:36:06;100929.97;;;33.32;36.00
74230;BME280;62589;12.568;99.958;2023-02-23T17:38:35;100918.41;;;33.30;36.22
74230;BME280;62589;12.568;99.958;2023-02-23T17:41:06;100929.13;;;33.28;35.63
74230;BME280;62589;12.568;99.958;2023-02-23T17:43:33;100917.16;;;33.24;35.65
74230;BME280;62589;12.568;99.958;2023-02-23T17:46:00;100922.31;;;33.22;35.33
74230;BME280;62589;12.568;99.958;2023-02-23T17:48:27;100914.75;;;33.19;36.02
74230;BME280;62589;12.568;99.958;2023-02-23T17:51:00;100922.69;;;33.17;36.27
74230;BME280;62589;12.568;99.958;2023-02-23T17:53:28;100920.28;;;33.15;36.41
74230;BME280;62589;12.568;99.958;2023-02-23T17:55:56;100919.47;;;33.15;36.22
74230;BME280;62589;12.568;99.958;2023-02-23T17:58:22;100916.28;;;33.12;36.23
74230;BME280;62589;12.568;99.958;2023-02-23T18:00:54;100911.06;;;33.07;36.05
74230;BME280;62589;12.568;99.958;2023-02-23T18:03:21;100907.88;;;33.05;36.32
74230;BME280;62589;12.568;99.958;2023-02-23T18:05:48;100907.50;;;33.03;36.43
74230;BME280;62589;12.568;99.958;2023-02-23T18:08:15;100908.25;;;33.00;36.72
74230;BME280;62589;12.568;99.958;2023-02-23T18:10:52;100916.19;;;32.98;37.05
74230;BME280;62589;12.568;99.958;2023-02-23T18:13:19;100911.44;;;32.99;36.74
74230;BME280;62589;12.568;99.958;2023-02-23T18:15:54;100912.56;;;32.94;36.96
74230;BME280;62589;12.568;99.958;2023-02-23T18:18:22;100905.00;;;32.91;36.88
74230;BME280;62589;12.568;99.958;2023-02-23T18:20:51;100904.19;;;32.91;36.65
74230;BME280;62589;12.568;99.958;2023-02-23T18:23:19;100899.38;;;32.84;36.90
74230;BME280;62589;12.568;99.958;2023-02-23T18:25:46;100896.59;;;32.84;37.11
74230;BME280;62589;12.568;99.958;2023-02-23T18:28:16;100907.31;;;32.82;37.03
74230;BME280;62589;12.568;99.958;2023-02-23T18:30:44;100900.94;;;32.78;37.18
74230;BME280;62589;12.568;99.958;2023-02-23T18:33:11;100892.97;;;32.76;37.00
74230;BME280;62589;12.568;99.958;2023-02-23T18:35:42;100891.75;;;32.74;36.55
74230;BME280;62589;12.568;99.958;2023-02-23T18:38:11;100890.97;;;32.73;36.55
74230;BME280;62589;12.568;99.958;2023-02-23T18:40:38;100888.09;;;32.70;36.35
74230;BME280;62589;12.568;99.958;2023-02-23T18:43:05;100876.56;;;32.68;36.39
74230;BME280;62589;12.568;99.958;2023-02-23T18:45:32;100878.97;;;32.69;35.96
74230;BME280;62589;12.568;99.958;2023-02-23T18:47:59;100880.16;;;32.68;35.87
74230;BME280;62589;12.568;99.958;2023-02-23T18:50:26;100887.31;;;32.69;36.16
74230;BME280;62589;12.568;99.958;2023-02-23T18:52:54;100880.16;;;32.68;35.83
74230;BME280;62589;12.568;99.958;2023-02-23T18:55:21;100869.78;;;32.65;36.13
74230;BME280;62589;12.568;99.958;2023-02-23T18:57:49;100872.19;;;32.67;35.87
74230;BME280;62589;12.568;99.958;2023-02-23T19:00:18;100870.59;;;32.66;36.04
74230;BME280;62589;12.568;99.958;2023-02-23T19:02:45;100873.00;;;32.67;36.17
74230;BME280;62589;12.568;99.958;2023-02-23T19:05:13;100871.00;;;32.68;36.07
74230;BME280;62589;12.568;99.958;2023-02-23T19:07:40;100867.06;;;32.69;36.02
74230;BME280;62589;12.568;99.958;2023-02-23T19:10:08;100868.22;;;32.68;36.22
74230;BME280;62589;12.568;99.958;2023-02-23T19:12:38;100874.22;;;32.70;36.16
74230;BME280;62589;12.568;99.958;2023-02-23T19:15:05;100865.88;;;32.70;36.33
74230;BME280;62589;12.568;99.958;2023-02-23T19:17:34;100863.47;;;32.68;36.01
74230;BME280;62589;12.568;99.958;2023-02-23T19:20:01;100862.66;;;32.68;35.68
74230;BME280;62589;12.568;99.958;2023-02-23T19:22:29;100867.06;;;32.69;35.58
74230;BME280;62589;12.568;99.958;2023-02-23T19:24:56;100869.03;;;32.68;36.01
74230;BME280;62589;12.568;99.958;2023-02-23T19:27:22;100863.06;;;32.66;35.71
74230;BME280;62589;12.568;99.958;2023-02-23T19:29:49;100868.19;;;32.64;35.46
74230;BME280;62589;12.568;99.958;2023-02-23T19:32:15;100863.44;;;32.65;35.28
74230;BME280;62589;12.568;99.958;2023-02-23T19:34:43;100861.84;;;32.64;35.32
74230;BME280;62589;12.568;99.958;2023-02-23T19:37:11;100857.50;;;32.63;35.17